Airfield :
LOGIN :

Register | Disclaimer

   EN    FR    IT 

 










Legend :    VFR   Marginal VFR   IFR   Intensive IFR   Very Intensive IFR
Visi :
Ceiling :
>= 8 km
>= 3000ft
5 to 8 km
1000 to 3000 ft
1500m to 5 km
500 to 1000 ft
800 to 1500m
200 to 500 ft
< 800m
< 200 ft
Symbols :   Thunderstorms  Fog  Heavy snow  Heavy precipitations  Wind > 20 kt
SIGMETs :     Misc.  Thunderstorms  Icing  Turbulence  Mountain Waves  Volcanic Ashes







- Airport Elevation : 386 ft
- IATA code : QOE


ETNN - Nörvenich Airforce Base

CURRENT METAR :
  • 230820Z 20011KT 9999 FEW100 13/05 Q1001 BLU+BLU+

EXPIRED METARs :
  • 230720Z 20009G19KT 9999 SCT100 12/05 Q1001 BLU+BLU+
  • 230620Z 20009KT 9999 SCT100 SCT220 12/05 Q1001 BLU+

TAF TAF ETNN
Valid from the 23 at 09:00 until the 23 at 18:00 UTC


230822Z 2309/2318 21010G25KT 9999 NSW SCT100 SCT200
TEMPO 2309/2313 21020G35KT 9999 NSW BKN100
TEMPO 2313/2315 21020G35KT 7000 -SHRA BKN020 BY ETGL
No reported NOTAMs for that airfield.
1 SIGMET reported for the Langen FIR (EDGG) :
 
Severe turbulence
EDGG SIGMET 1 VALID 230645/231000 EDZF
EDGG LANGEN FIR SEV TURB FCST APRX 80NM WID LINE BTN N4912 E00644 - N5116 E01021 2000FT/5000FT STNR NC=



MET'MAP, your aeronautical weather chart ! - Copyright ORBIFLY December 2007 - Disclaimer

ORBIFLY MET'MAP TEAM :

Programming & Development : Alexandra Zaïnal
Concept & Development : Baudouin d'Aumeries
Co-Development & Prog : Marc-Olivier Méhu
Technical & hardware support : Manuel Goepfert

Contact : metmap@orbifly.com




SOURCES & CREDITS :

   NOAA